Zion Natl Park, Utah
Current Conditions -  °F | °C
As of 1:15 PM on Sunday 23 Nov 2014 (Local Time) from KAZC Reporting Station
Clear Clear  
Wind Chill: 45°   Ceiling: Unl
Heat Index: 49°   Visibility: 10mi
Dew Point:   Wind: 9mph
Humidity: 18%   Direction: 310°NW
Pressure: 30.23"   Gusts: 26mph
Location:  37.17°N, 113°W
Report Text: KAZC 232015Z AUTO 31008G23KT 270V330 10SM CLR 10/M14 A3023 RMK AO2 T00951139
Loading
Personal Weather Stations






























Interactive Weather Map New forecast layout! Learn more

10-Day Weather Forecast

Advertisements
Track Severe Weather on mobile